createdAt,value
2022-10-08T00:01:17.816Z,55.40
2022-10-08T00:03:47.574Z,55.50
2022-10-08T00:06:17.777Z,55.50
2022-10-08T00:08:49.392Z,55.40
2022-10-08T00:11:21.392Z,55.50
2022-10-08T00:13:50.723Z,55.40
2022-10-08T00:16:21.694Z,55.50
2022-10-08T00:18:51.420Z,55.50
2022-10-08T00:21:23.930Z,55.50
2022-10-08T00:23:53.504Z,55.50
2022-10-08T00:26:25.381Z,55.50
2022-10-08T00:28:55.197Z,55.50
2022-10-08T00:31:26.315Z,55.50
2022-10-08T00:33:56.462Z,55.50
2022-10-08T00:36:26.138Z,55.60
2022-10-08T00:38:56.857Z,55.40
2022-10-08T00:41:27.782Z,55.40
2022-10-08T00:43:58.448Z,55.60
2022-10-08T00:46:30.187Z,55.60
2022-10-08T00:49:03.420Z,55.50
2022-10-08T00:51:32.998Z,55.50
2022-10-08T00:54:03.031Z,55.50
2022-10-08T00:56:34.606Z,55.50
2022-10-08T00:59:03.165Z,55.60
2022-10-08T01:01:31.360Z,55.40
2022-10-08T01:04:02.494Z,55.80
2022-10-08T01:06:32.601Z,55.60
2022-10-08T01:09:05.984Z,55.40
2022-10-08T01:11:47.145Z,55.50
2022-10-08T01:14:29.246Z,55.60
2022-10-08T01:17:07.805Z,55.40
2022-10-08T01:20:13.876Z,55.50
2022-10-08T01:23:00.132Z,55.60
2022-10-08T01:25:37.769Z,55.60
2022-10-08T01:28:14.803Z,55.60
2022-10-08T01:30:49.703Z,55.50
2022-10-08T01:33:22.589Z,55.40
2022-10-08T01:35:56.525Z,55.60
2022-10-08T01:38:27.959Z,55.50
2022-10-08T01:40:59.026Z,55.40
2022-10-08T01:43:33.497Z,55.50
2022-10-08T01:46:07.046Z,55.50
2022-10-08T01:48:37.326Z,55.50
2022-10-08T01:51:10.460Z,55.60
2022-10-08T01:53:41.822Z,55.50
2022-10-08T01:56:13.091Z,55.50
2022-10-08T01:58:49.922Z,55.50
2022-10-08T02:01:23.532Z,55.60
2022-10-08T02:04:10.296Z,55.60
2022-10-08T02:06:43.645Z,55.50
2022-10-08T02:09:12.026Z,55.60
2022-10-08T02:11:40.203Z,55.50
2022-10-08T02:14:09.425Z,55.50
2022-10-08T02:16:42.941Z,55.60
2022-10-08T02:19:13.640Z,55.50
2022-10-08T02:21:43.558Z,55.50
2022-10-08T02:24:16.464Z,55.50
2022-10-08T02:26:48.829Z,55.50
2022-10-08T02:29:23.548Z,55.50
2022-10-08T02:31:54.783Z,55.50
2022-10-08T02:34:28.803Z,55.50
2022-10-08T02:37:02.516Z,55.50
2022-10-08T02:39:32.281Z,55.50
2022-10-08T02:42:03.960Z,55.50
2022-10-08T02:44:37.896Z,55.50
2022-10-08T02:47:17.249Z,55.50
2022-10-08T02:49:51.087Z,55.50
2022-10-08T02:52:21.145Z,55.50
2022-10-08T02:54:52.664Z,55.50
2022-10-08T02:57:27.504Z,55.50
2022-10-08T02:59:56.979Z,55.50
2022-10-08T03:02:33.106Z,55.60
2022-10-08T03:05:04.084Z,55.50
2022-10-08T03:07:33.579Z,55.50
2022-10-08T03:10:05.612Z,55.50
2022-10-08T03:12:34.172Z,55.50
2022-10-08T03:15:03.496Z,55.50
2022-10-08T03:17:36.268Z,55.50
2022-10-08T03:20:06.358Z,55.50
2022-10-08T03:22:35.274Z,55.50
2022-10-08T03:25:03.069Z,55.50
2022-10-08T03:27:30.939Z,55.50
2022-10-08T03:29:58.787Z,55.50
2022-10-08T03:32:28.674Z,55.60
2022-10-08T03:34:56.498Z,55.50
2022-10-08T03:37:24.340Z,55.50
2022-10-08T03:39:52.158Z,55.50
2022-10-08T03:42:20.037Z,55.50
2022-10-08T03:44:47.844Z,55.50
2022-10-08T03:47:15.663Z,55.50
2022-10-08T03:49:44.816Z,55.50
2022-10-08T03:52:12.678Z,55.50
2022-10-08T03:54:40.550Z,55.80
2022-10-08T03:57:08.375Z,55.50
2022-10-08T03:59:36.252Z,55.50
2022-10-08T04:02:04.101Z,55.60
2022-10-08T04:04:31.991Z,55.50
2022-10-08T04:07:01.185Z,55.50
2022-10-08T04:09:28.990Z,55.50
2022-10-08T04:11:56.835Z,55.50
2022-10-08T04:14:24.661Z,55.50
2022-10-08T04:16:52.526Z,55.50
2022-10-08T04:19:20.333Z,55.60
2022-10-08T04:21:48.174Z,55.50
2022-10-08T04:24:17.324Z,55.60
2022-10-08T04:26:45.126Z,55.60
2022-10-08T04:29:12.961Z,55.50
2022-10-08T04:31:41.197Z,55.50
2022-10-08T04:34:10.352Z,55.50
2022-10-08T04:36:38.506Z,55.50
2022-10-08T04:39:06.315Z,55.50
2022-10-08T04:41:35.468Z,55.50
2022-10-08T04:44:03.270Z,55.60
2022-10-08T04:46:31.315Z,55.50
2022-10-08T04:49:00.053Z,55.50
2022-10-08T04:51:28.434Z,56.20
2022-10-08T04:53:57.635Z,55.60
2022-10-08T04:56:27.258Z,55.60
2022-10-08T04:58:57.005Z,55.60
2022-10-08T05:01:25.812Z,55.60
2022-10-08T05:03:55.547Z,55.60
2022-10-08T05:06:25.330Z,55.60
2022-10-08T05:08:53.632Z,55.50
2022-10-08T05:11:25.035Z,55.60
2022-10-08T05:13:53.899Z,55.60
2022-10-08T05:16:23.805Z,55.60
2022-10-08T05:18:52.146Z,55.60
2022-10-08T05:21:22.430Z,55.60
2022-10-08T05:23:55.154Z,55.60
2022-10-08T05:26:46.198Z,55.60
2022-10-08T05:29:12.814Z,55.60
2022-10-08T05:31:42.047Z,55.60
2022-10-08T05:34:09.948Z,55.60
2022-10-08T05:36:37.808Z,55.60
2022-10-08T05:39:06.241Z,55.60
2022-10-08T05:41:36.780Z,55.60
2022-10-08T05:44:06.381Z,55.60
2022-10-08T05:46:36.472Z,55.60
2022-10-08T05:49:07.684Z,55.60
2022-10-08T05:51:36.164Z,55.60
2022-10-08T05:54:04.154Z,55.60
2022-10-08T05:56:32.143Z,55.60
2022-10-08T05:59:00.054Z,55.60
2022-10-08T06:01:30.761Z,55.60
2022-10-08T06:04:03.077Z,55.60
2022-10-08T06:06:37.934Z,55.60
2022-10-08T06:09:06.805Z,55.60
2022-10-08T06:11:36.447Z,55.60
2022-10-08T06:14:06.013Z,55.60
2022-10-08T06:16:34.913Z,55.60
2022-10-08T06:19:03.232Z,55.60
2022-10-08T06:21:32.030Z,55.60
2022-10-08T06:24:02.657Z,55.60
2022-10-08T06:26:35.974Z,55.60
2022-10-08T06:29:06.528Z,55.60
2022-10-08T06:31:35.012Z,55.60
2022-10-08T06:34:04.269Z,55.60
2022-10-08T06:36:33.241Z,55.60
2022-10-08T06:39:04.307Z,55.60
2022-10-08T06:41:34.711Z,55.60
2022-10-08T06:44:02.972Z,55.60
2022-10-08T06:46:32.227Z,55.60
2022-10-08T06:49:01.337Z,55.60
2022-10-08T06:51:30.134Z,55.60
2022-10-08T06:54:05.929Z,55.60
2022-10-08T06:56:37.868Z,55.60
2022-10-08T06:59:06.274Z,55.60
2022-10-08T07:01:35.079Z,55.60
2022-10-08T07:04:03.999Z,55.60
2022-10-08T07:06:32.154Z,55.60
2022-10-08T07:09:01.827Z,55.60
2022-10-08T07:11:31.874Z,55.60
2022-10-08T07:14:01.156Z,55.60
2022-10-08T07:16:29.978Z,55.60
2022-10-08T07:18:59.200Z,55.60
2022-10-08T07:21:28.593Z,55.60
2022-10-08T07:23:56.853Z,55.60
2022-10-08T07:26:26.846Z,55.60
2022-10-08T07:28:56.912Z,55.70
2022-10-08T07:31:28.288Z,55.60
2022-10-08T07:33:56.291Z,55.60
2022-10-08T07:36:25.288Z,55.60
2022-10-08T07:38:55.403Z,55.60
2022-10-08T07:41:23.742Z,55.60
2022-10-08T07:43:52.434Z,55.60
2022-10-08T07:46:20.896Z,55.70
2022-10-08T07:48:50.683Z,55.60
2022-10-08T07:51:20.519Z,55.70
2022-10-08T07:53:49.275Z,55.70
2022-10-08T07:56:19.188Z,55.70
2022-10-08T07:58:47.631Z,55.70
2022-10-08T08:01:19.843Z,55.60
2022-10-08T08:03:53.707Z,55.70
2022-10-08T08:06:21.524Z,55.70
2022-10-08T08:08:49.332Z,55.60
2022-10-08T08:11:19.785Z,55.70
2022-10-08T08:13:48.083Z,55.70
2022-10-08T08:16:17.799Z,55.70
2022-10-08T08:18:47.416Z,55.70
2022-10-08T08:21:18.769Z,55.70
2022-10-08T08:23:48.313Z,55.70
2022-10-08T08:26:17.795Z,55.70
2022-10-08T08:28:46.394Z,55.60
2022-10-08T08:31:16.453Z,55.70
2022-10-08T08:33:48.421Z,55.70
2022-10-08T08:36:18.373Z,55.70
2022-10-08T08:38:46.750Z,55.70
2022-10-08T08:41:33.404Z,55.70
2022-10-08T08:44:03.632Z,55.70
2022-10-08T08:46:34.440Z,55.70
2022-10-08T08:49:08.776Z,55.70
2022-10-08T08:51:37.979Z,55.70
2022-10-08T08:54:06.126Z,55.70
2022-10-08T08:56:35.014Z,55.60
2022-10-08T08:59:06.798Z,55.70
2022-10-08T09:01:37.626Z,55.70
2022-10-08T09:04:14.468Z,55.60
2022-10-08T09:06:44.382Z,55.70
2022-10-08T09:09:22.281Z,55.60
2022-10-08T09:11:50.861Z,55.70
2022-10-08T09:14:33.124Z,55.60
2022-10-08T09:17:10.438Z,55.70
2022-10-08T09:19:40.175Z,55.60
2022-10-08T09:22:22.493Z,55.60
2022-10-08T09:24:54.588Z,55.60
2022-10-08T09:27:22.480Z,55.60
2022-10-08T09:29:50.274Z,55.60
2022-10-08T09:32:20.111Z,55.70
2022-10-08T09:34:49.215Z,55.70
2022-10-08T09:37:23.727Z,55.70
2022-10-08T09:40:17.829Z,55.70
2022-10-08T09:42:46.115Z,55.70
2022-10-08T09:45:33.320Z,55.70
2022-10-08T09:48:16.777Z,55.70
2022-10-08T09:50:51.504Z,55.70
2022-10-08T09:53:22.684Z,55.60
2022-10-08T09:55:55.385Z,55.70
2022-10-08T09:58:23.505Z,55.70
2022-10-08T10:01:02.092Z,55.70
2022-10-08T10:03:32.509Z,55.60
2022-10-08T10:06:01.509Z,55.60
2022-10-08T10:08:55.878Z,55.70
2022-10-08T10:11:30.865Z,55.60
2022-10-08T10:14:03.316Z,55.60
2022-10-08T10:16:37.325Z,55.60
2022-10-08T10:19:09.572Z,55.60
2022-10-08T10:21:46.905Z,55.60
2022-10-08T10:24:32.711Z,55.60
2022-10-08T10:27:06.602Z,55.60
2022-10-08T10:29:49.786Z,55.60
2022-10-08T10:32:23.372Z,55.60
2022-10-08T10:35:01.597Z,55.60
2022-10-08T10:37:36.213Z,55.60
2022-10-08T10:40:31.582Z,55.60
2022-10-08T10:43:15.098Z,55.60
2022-10-08T10:45:47.413Z,55.70
2022-10-08T10:48:15.991Z,55.70
2022-10-08T10:50:59.238Z,55.60
2022-10-08T10:53:36.807Z,55.60
2022-10-08T10:56:13.910Z,55.60
2022-10-08T10:58:57.750Z,55.60
2022-10-08T11:01:33.745Z,55.60
2022-10-08T11:04:09.193Z,55.60
2022-10-08T11:07:02.437Z,55.60
2022-10-08T11:09:45.136Z,55.60
2022-10-08T11:12:28.776Z,55.60
2022-10-08T11:15:06.847Z,55.60
2022-10-08T11:17:59.332Z,55.60
2022-10-08T11:20:40.999Z,55.60
2022-10-08T11:23:21.687Z,55.60
2022-10-08T11:26:19.110Z,55.60
2022-10-08T11:28:56.261Z,55.60
2022-10-08T11:31:34.352Z,55.60
2022-10-08T11:34:04.344Z,55.60
2022-10-08T11:36:38.891Z,55.60
2022-10-08T11:39:15.078Z,55.60
2022-10-08T11:41:49.918Z,55.60
2022-10-08T11:44:20.137Z,55.60
2022-10-08T11:46:48.144Z,55.60
2022-10-08T11:49:45.333Z,55.60
2022-10-08T11:52:16.378Z,55.60
2022-10-08T11:54:55.112Z,55.60
2022-10-08T11:57:49.269Z,55.60
2022-10-08T12:00:37.283Z,55.60
2022-10-08T12:03:08.252Z,55.60
2022-10-08T12:05:47.997Z,55.50
2022-10-08T12:08:50.340Z,55.50
2022-10-08T12:11:53.392Z,55.60
2022-10-08T12:14:48.815Z,55.50
2022-10-08T12:17:18.324Z,55.50
2022-10-08T12:20:03.200Z,55.50
2022-10-08T12:22:45.090Z,55.50
2022-10-08T12:25:41.664Z,55.50
2022-10-08T12:28:54.518Z,55.40
2022-10-08T12:31:31.662Z,55.50
2022-10-08T12:34:13.367Z,55.50
2022-10-08T12:36:48.145Z,55.40
2022-10-08T12:39:25.663Z,55.50
2022-10-08T12:42:00.754Z,55.40
2022-10-08T12:44:41.727Z,55.40
2022-10-08T12:47:21.769Z,55.40
2022-10-08T12:49:57.095Z,55.40
2022-10-08T12:52:25.629Z,55.40
2022-10-08T12:54:55.972Z,55.40
2022-10-08T12:57:30.036Z,55.40
2022-10-08T12:59:59.632Z,55.40
2022-10-08T13:02:29.132Z,55.40
2022-10-08T13:04:58.302Z,55.40
2022-10-08T13:07:28.846Z,55.40
2022-10-08T13:09:58.176Z,55.40
2022-10-08T13:12:26.323Z,55.40
2022-10-08T13:15:03.624Z,55.40
2022-10-08T13:17:33.410Z,55.40
2022-10-08T13:20:08.829Z,56.00
2022-10-08T13:22:36.653Z,55.40
2022-10-08T13:25:05.291Z,55.40
2022-10-08T13:27:34.675Z,55.50
2022-10-08T13:30:26.971Z,55.50
2022-10-08T13:33:03.651Z,55.40
2022-10-08T13:35:34.129Z,55.40
2022-10-08T13:38:05.011Z,55.50
2022-10-08T13:40:32.930Z,55.40
2022-10-08T13:43:00.888Z,55.50
2022-10-08T13:45:31.051Z,55.50
2022-10-08T13:47:59.112Z,55.50
2022-10-08T13:50:27.078Z,55.50
2022-10-08T13:53:00.105Z,55.50
2022-10-08T13:55:30.358Z,55.40
2022-10-08T13:58:01.833Z,55.50
2022-10-08T14:00:30.596Z,55.50
2022-10-08T14:02:58.561Z,55.50
2022-10-08T14:05:28.152Z,55.50
2022-10-08T14:07:59.956Z,55.40
2022-10-08T14:10:28.062Z,55.40
2022-10-08T14:12:55.872Z,55.40
2022-10-08T14:15:24.439Z,55.40
2022-10-08T14:17:53.312Z,55.40
2022-10-08T14:20:21.208Z,55.40
2022-10-08T14:22:49.033Z,55.40
2022-10-08T14:25:21.181Z,55.40
2022-10-08T14:27:49.191Z,55.40
2022-10-08T14:30:18.183Z,55.40
2022-10-08T14:32:46.833Z,55.40
2022-10-08T14:35:14.893Z,55.40
2022-10-08T14:37:42.748Z,55.40
2022-10-08T14:40:16.136Z,55.40
2022-10-08T14:42:45.833Z,55.40
2022-10-08T14:45:13.832Z,55.40
2022-10-08T14:47:41.903Z,55.40
2022-10-08T14:50:10.501Z,55.40
2022-10-08T14:52:44.786Z,55.40
2022-10-08T14:55:14.084Z,55.40
2022-10-08T14:57:41.990Z,55.40
2022-10-08T15:00:13.203Z,55.40
2022-10-08T15:02:41.112Z,55.40
2022-10-08T15:05:09.629Z,55.40
2022-10-08T15:07:37.450Z,55.40
2022-10-08T15:10:05.951Z,55.40
2022-10-08T15:12:34.366Z,55.40
2022-10-08T15:15:02.279Z,55.40
2022-10-08T15:17:31.681Z,55.40
2022-10-08T15:19:59.550Z,55.40
2022-10-08T15:22:27.545Z,55.40
2022-10-08T15:24:55.371Z,55.40
2022-10-08T15:27:23.192Z,55.40
2022-10-08T15:29:50.995Z,55.40
2022-10-08T15:32:18.820Z,55.40
2022-10-08T15:34:48.021Z,55.40
2022-10-08T15:37:15.818Z,55.40
2022-10-08T15:39:43.693Z,55.40
2022-10-08T15:42:13.061Z,55.40
2022-10-08T15:44:46.236Z,55.40
2022-10-08T15:47:16.405Z,55.40
2022-10-08T15:49:45.741Z,55.40
2022-10-08T15:52:17.317Z,55.40
2022-10-08T15:54:46.366Z,55.40
2022-10-08T15:57:17.066Z,55.40
2022-10-08T15:59:44.963Z,55.40
2022-10-08T16:02:17.033Z,55.40
2022-10-08T16:04:47.781Z,55.40
2022-10-08T16:07:17.070Z,55.40
2022-10-08T16:09:44.970Z,55.40
2022-10-08T16:12:12.886Z,55.40
2022-10-08T16:14:40.688Z,55.40
2022-10-08T16:17:09.150Z,55.40
2022-10-08T16:19:37.021Z,55.40
2022-10-08T16:22:05.365Z,55.40
2022-10-08T16:24:34.548Z,55.40
2022-10-08T16:27:02.433Z,55.40
2022-10-08T16:29:30.466Z,55.40
2022-10-08T16:31:58.526Z,55.40
2022-10-08T16:34:27.048Z,55.40
2022-10-08T16:36:55.177Z,55.40
2022-10-08T16:39:24.972Z,55.40
2022-10-08T16:41:54.181Z,55.40
2022-10-08T16:44:22.829Z,55.40
2022-10-08T16:46:52.468Z,55.40
2022-10-08T16:49:25.102Z,55.30
2022-10-08T16:51:54.505Z,55.40
2022-10-08T16:54:22.658Z,55.30
2022-10-08T16:56:51.102Z,55.30
2022-10-08T16:59:22.189Z,55.40
2022-10-08T17:01:52.067Z,55.50
2022-10-08T17:04:21.422Z,55.30
2022-10-08T17:06:49.819Z,55.30
2022-10-08T17:09:18.174Z,55.40
2022-10-08T17:11:46.046Z,55.30
2022-10-08T17:14:14.212Z,55.30
2022-10-08T17:16:44.995Z,55.40
2022-10-08T17:19:13.462Z,55.40
2022-10-08T17:21:41.508Z,55.40
2022-10-08T17:24:10.846Z,55.40
2022-10-08T17:26:39.207Z,55.40
2022-10-08T17:29:09.341Z,55.40
2022-10-08T17:31:38.407Z,55.40
2022-10-08T17:34:08.368Z,55.40
2022-10-08T17:36:37.804Z,55.40
2022-10-08T17:39:07.859Z,55.30
2022-10-08T17:41:37.294Z,55.40
2022-10-08T17:44:07.428Z,55.40
2022-10-08T17:46:36.678Z,55.40
2022-10-08T17:49:04.671Z,55.40
2022-10-08T17:51:33.906Z,55.40
2022-10-08T17:54:03.405Z,55.40
2022-10-08T17:56:32.234Z,55.40
2022-10-08T17:59:00.488Z,55.40
2022-10-08T18:01:30.396Z,55.40
2022-10-08T18:04:00.264Z,55.40
2022-10-08T18:06:29.189Z,55.40
2022-10-08T18:08:59.702Z,55.40
2022-10-08T18:11:29.499Z,55.40
2022-10-08T18:13:57.662Z,55.40
2022-10-08T18:16:26.257Z,55.40
2022-10-08T18:18:54.507Z,55.40
2022-10-08T18:21:22.837Z,55.40
2022-10-08T18:23:51.482Z,55.40
2022-10-08T18:26:22.745Z,55.40
2022-10-08T18:28:52.162Z,55.40
2022-10-08T18:31:21.416Z,55.40
2022-10-08T18:33:51.681Z,55.40
2022-10-08T18:36:21.360Z,55.40
2022-10-08T18:38:54.338Z,55.40
2022-10-08T18:41:25.402Z,55.40
2022-10-08T18:43:53.359Z,55.40
2022-10-08T18:46:22.421Z,55.40
2022-10-08T18:48:50.657Z,55.40
2022-10-08T18:51:21.332Z,55.40
2022-10-08T18:53:50.468Z,55.40
2022-10-08T18:56:20.369Z,55.30
2022-10-08T18:58:52.782Z,55.40
2022-10-08T19:01:22.073Z,55.30
2022-10-08T19:03:51.735Z,55.30
2022-10-08T19:06:21.426Z,55.30
2022-10-08T19:08:49.684Z,55.40
2022-10-08T19:11:18.880Z,56.00
2022-10-08T19:13:47.205Z,55.40
2022-10-08T19:16:16.950Z,55.30
2022-10-08T19:18:52.167Z,56.00
2022-10-08T19:21:20.683Z,55.30
2022-10-08T19:23:48.684Z,55.30
2022-10-08T19:26:16.873Z,55.40
2022-10-08T19:28:47.228Z,55.30
2022-10-08T19:31:18.793Z,55.30
2022-10-08T19:33:49.743Z,55.30
2022-10-08T19:36:18.459Z,55.30
2022-10-08T19:38:51.840Z,55.30
2022-10-08T19:41:19.706Z,55.40
2022-10-08T19:43:47.630Z,55.30
2022-10-08T19:46:16.989Z,55.30
2022-10-08T19:48:48.159Z,55.30
2022-10-08T19:51:16.036Z,55.30
2022-10-08T19:53:43.977Z,55.30
2022-10-08T19:56:13.050Z,55.30
2022-10-08T19:58:47.656Z,55.30
2022-10-08T20:01:19.808Z,55.30
2022-10-08T20:03:48.234Z,55.30
2022-10-08T20:06:23.165Z,55.30
2022-10-08T20:08:53.536Z,55.30
2022-10-08T20:11:22.049Z,55.30
2022-10-08T20:13:51.173Z,55.30
2022-10-08T20:16:21.970Z,55.30
2022-10-08T20:18:51.242Z,55.30
2022-10-08T20:21:20.303Z,55.30
2022-10-08T20:23:48.513Z,55.30
2022-10-08T20:26:18.445Z,55.30
2022-10-08T20:28:47.545Z,55.30
2022-10-08T20:31:17.633Z,55.30
2022-10-08T20:33:48.317Z,55.30
2022-10-08T20:36:17.997Z,55.30
2022-10-08T20:38:45.999Z,55.30
2022-10-08T20:41:13.870Z,55.30
2022-10-08T20:43:41.868Z,55.30
2022-10-08T20:46:12.366Z,55.30
2022-10-08T20:48:42.259Z,55.30
2022-10-08T20:51:13.770Z,55.30
2022-10-08T20:53:46.467Z,55.30
2022-10-08T20:56:15.003Z,55.30
2022-10-08T20:58:43.580Z,55.30
2022-10-08T21:01:13.657Z,55.30
2022-10-08T21:03:43.888Z,56.00
2022-10-08T21:06:14.873Z,55.30
2022-10-08T21:08:44.885Z,55.30
2022-10-08T21:11:14.465Z,55.30
2022-10-08T21:13:42.925Z,55.30
2022-10-08T21:16:13.429Z,55.30
2022-10-08T21:18:42.002Z,55.30
2022-10-08T21:21:11.618Z,55.30
2022-10-08T21:23:41.610Z,55.30
2022-10-08T21:26:12.528Z,55.30
2022-10-08T21:28:41.087Z,55.30
2022-10-08T21:31:10.522Z,56.00
2022-10-08T21:33:39.167Z,55.30
2022-10-08T21:36:08.669Z,55.30
2022-10-08T21:38:36.480Z,55.30
2022-10-08T21:41:12.358Z,55.30
2022-10-08T21:43:40.991Z,55.30
2022-10-08T21:46:10.679Z,56.00
2022-10-08T21:48:39.077Z,55.30
2022-10-08T21:51:08.597Z,55.30
2022-10-08T21:53:38.805Z,55.30
2022-10-08T21:56:11.175Z,55.30
2022-10-08T21:58:40.906Z,55.30
2022-10-08T22:01:19.100Z,55.20
2022-10-08T22:03:47.288Z,55.30
2022-10-08T22:06:15.182Z,55.30
2022-10-08T22:08:43.091Z,55.30
2022-10-08T22:11:12.406Z,55.30
2022-10-08T22:13:40.386Z,55.30
2022-10-08T22:16:08.767Z,55.30
2022-10-08T22:18:36.817Z,55.30
2022-10-08T22:21:07.123Z,55.30
2022-10-08T22:23:35.988Z,55.20
2022-10-08T22:26:06.357Z,55.30
2022-10-08T22:28:36.073Z,55.20
2022-10-08T22:31:05.599Z,55.20
2022-10-08T22:33:34.003Z,55.30
2022-10-08T22:36:03.187Z,55.30
2022-10-08T22:38:32.312Z,55.20
2022-10-08T22:41:03.800Z,55.20
2022-10-08T22:43:31.652Z,55.20
2022-10-08T22:46:04.024Z,55.20
2022-10-08T22:48:32.063Z,55.20
2022-10-08T22:51:02.455Z,55.20
2022-10-08T22:53:30.377Z,55.20
2022-10-08T22:55:58.379Z,55.20
2022-10-08T22:58:26.826Z,55.20
2022-10-08T23:01:01.246Z,55.20
2022-10-08T23:03:31.308Z,55.20
2022-10-08T23:06:06.603Z,55.20
2022-10-08T23:08:34.617Z,55.30
2022-10-08T23:11:03.155Z,55.20
2022-10-08T23:13:31.580Z,55.20
2022-10-08T23:16:02.517Z,55.20
2022-10-08T23:18:33.165Z,55.20
2022-10-08T23:21:03.386Z,55.20
2022-10-08T23:23:31.561Z,55.20
2022-10-08T23:26:02.311Z,55.20
2022-10-08T23:28:31.021Z,55.20
2022-10-08T23:31:05.609Z,55.20
2022-10-08T23:33:35.386Z,55.20
2022-10-08T23:36:03.190Z,55.20
2022-10-08T23:38:31.134Z,55.20
2022-10-08T23:41:03.582Z,55.20
2022-10-08T23:43:35.645Z,55.20
2022-10-08T23:46:03.893Z,55.10
2022-10-08T23:48:31.874Z,55.20
2022-10-08T23:51:01.326Z,55.20
2022-10-08T23:53:29.286Z,55.10
2022-10-08T23:55:57.415Z,55.20
2022-10-08T23:58:25.277Z,55.10
